createdAt,value
2022-07-29T00:01:40.710Z,95400.50
2022-07-29T00:03:40.491Z,95404.28
2022-07-29T00:05:40.256Z,95402.41
2022-07-29T00:07:38.502Z,95418.81
2022-07-29T00:09:50.876Z,95418.25
2022-07-29T00:11:51.246Z,95415.78
2022-07-29T00:13:51.137Z,95417.66
2022-07-29T00:15:49.501Z,95419.09
2022-07-29T00:17:47.709Z,95417.84
2022-07-29T00:19:47.423Z,95413.34
2022-07-29T00:21:45.780Z,95414.91
2022-07-29T00:23:44.097Z,95413.16
2022-07-29T00:25:42.445Z,95413.34
2022-07-29T00:27:41.229Z,95411.88
2022-07-29T00:29:39.348Z,95414.34
2022-07-29T00:31:37.726Z,95416.66
2022-07-29T00:33:36.129Z,95414.72
2022-07-29T00:35:47.255Z,95417.03
2022-07-29T00:37:45.720Z,95412.72
2022-07-29T00:39:44.096Z,95417.28
2022-07-29T00:41:42.346Z,95418.56
2022-07-29T00:43:40.702Z,95430.91
2022-07-29T00:45:38.979Z,95422.81
2022-07-29T00:47:37.326Z,95420.03
2022-07-29T00:49:36.715Z,95417.78
2022-07-29T00:51:37.644Z,95420.72
2022-07-29T00:53:37.801Z,95431.63
2022-07-29T00:55:36.526Z,95431.31
2022-07-29T00:57:35.143Z,95431.16
2022-07-29T00:59:35.113Z,95421.25
2022-07-29T01:01:33.733Z,95415.97
2022-07-29T01:03:32.042Z,95416.63
2022-07-29T01:05:50.751Z,95415.69
2022-07-29T01:07:53.383Z,95417.81
2022-07-29T01:09:52.579Z,95419.63
2022-07-29T01:11:51.540Z,95418.66
2022-07-29T01:13:50.434Z,95408.34
2022-07-29T01:15:56.903Z,95404.78
2022-07-29T01:18:03.931Z,95405.91
2022-07-29T01:20:12.852Z,95400.63
2022-07-29T01:22:30.391Z,95398.22
2022-07-29T01:25:04.487Z,95400.22
2022-07-29T01:27:11.865Z,95392.03
2022-07-29T01:29:20.833Z,95392.88
2022-07-29T01:31:27.439Z,95396.38
2022-07-29T01:33:46.528Z,95394.69
2022-07-29T01:35:46.422Z,95387.78
2022-07-29T01:37:49.083Z,95379.72
2022-07-29T01:39:49.870Z,95379.25
2022-07-29T01:41:55.432Z,95382.56
2022-07-29T01:43:58.866Z,95388.66
2022-07-29T01:46:02.699Z,95390.81
2022-07-29T01:48:05.699Z,95383.63
2022-07-29T01:50:09.682Z,95382.16
2022-07-29T01:52:09.970Z,95388.84
2022-07-29T01:54:15.311Z,95391.16
2022-07-29T01:56:17.712Z,95380.84
2022-07-29T01:58:19.940Z,95384.81
2022-07-29T02:00:19.786Z,95380.97
2022-07-29T02:02:21.187Z,95377.41
2022-07-29T02:04:29.337Z,95374.75
2022-07-29T02:06:30.431Z,95373.63
2022-07-29T02:08:30.453Z,95369.38
2022-07-29T02:10:32.227Z,95367.53
2022-07-29T02:12:33.226Z,95369.72
2022-07-29T02:14:36.372Z,95373.16
2022-07-29T02:16:37.474Z,95372.28
2022-07-29T02:18:39.445Z,95365.38
2022-07-29T02:20:41.116Z,95378.31
2022-07-29T02:22:41.229Z,95377.31
2022-07-29T02:24:41.460Z,95360.72
2022-07-29T02:26:42.542Z,95362.72
2022-07-29T02:28:42.413Z,95359.09
2022-07-29T02:30:44.100Z,95365.53
2022-07-29T02:32:43.827Z,95354.00
2022-07-29T02:34:45.142Z,95360.94
2022-07-29T02:36:46.404Z,95352.59
2022-07-29T02:38:54.438Z,95349.69
2022-07-29T02:40:54.652Z,95348.91
2022-07-29T02:42:53.051Z,95346.97
2022-07-29T02:44:52.612Z,95352.34
2022-07-29T02:46:55.681Z,95347.66
2022-07-29T02:49:00.441Z,95353.66
2022-07-29T02:51:07.308Z,95355.13
2022-07-29T02:53:13.833Z,95358.75
2022-07-29T02:55:19.148Z,95355.41
2022-07-29T02:57:22.528Z,95354.59
2022-07-29T02:59:25.669Z,95350.91
2022-07-29T03:01:26.353Z,95351.00
2022-07-29T03:03:27.443Z,95349.78
2022-07-29T03:05:26.499Z,95350.81
2022-07-29T03:07:26.850Z,95353.06
2022-07-29T03:09:26.336Z,95356.09
2022-07-29T03:11:41.482Z,95343.94
2022-07-29T03:13:43.934Z,95353.44
2022-07-29T03:15:44.743Z,95352.34
2022-07-29T03:17:43.996Z,95352.81
2022-07-29T03:19:42.959Z,95356.03
2022-07-29T03:21:41.545Z,95357.25
2022-07-29T03:23:46.155Z,95355.09
2022-07-29T03:25:45.544Z,95357.38
2022-07-29T03:27:44.319Z,95357.63
2022-07-29T03:29:43.718Z,95351.34
2022-07-29T03:31:48.427Z,95356.41
2022-07-29T03:33:46.716Z,95355.25
2022-07-29T03:35:44.921Z,95363.25
2022-07-29T03:37:43.246Z,95364.19
2022-07-29T03:39:43.727Z,95358.25
2022-07-29T03:41:46.417Z,95355.38
2022-07-29T03:43:49.474Z,95369.13
2022-07-29T03:45:51.810Z,95357.97
2022-07-29T03:47:59.901Z,95367.09
2022-07-29T03:50:02.367Z,95364.03
2022-07-29T03:52:00.829Z,95369.19
2022-07-29T03:53:59.555Z,95374.31
2022-07-29T03:56:02.112Z,95369.28
2022-07-29T03:58:03.218Z,95372.38
2022-07-29T04:00:03.855Z,95374.50
2022-07-29T04:02:04.768Z,95376.84
2022-07-29T04:04:03.787Z,95380.56
2022-07-29T04:06:03.545Z,95371.84
2022-07-29T04:08:01.950Z,95372.09
2022-07-29T04:10:00.254Z,95368.66
2022-07-29T04:12:03.050Z,95372.47
2022-07-29T04:14:02.014Z,95368.03
2022-07-29T04:16:00.792Z,95375.53
2022-07-29T04:17:59.230Z,95363.75
2022-07-29T04:19:57.482Z,95356.59
2022-07-29T04:21:55.822Z,95365.38
2022-07-29T04:23:54.132Z,95358.97
2022-07-29T04:25:52.446Z,95360.72
2022-07-29T04:28:04.093Z,95368.44
2022-07-29T04:30:02.562Z,95363.72
2022-07-29T04:32:00.756Z,95371.16
2022-07-29T04:33:58.986Z,95368.56
2022-07-29T04:35:57.412Z,95370.38
2022-07-29T04:37:55.581Z,95382.84
2022-07-29T04:39:53.926Z,95383.22
2022-07-29T04:41:54.910Z,95381.28
2022-07-29T04:43:56.506Z,95375.31
2022-07-29T04:45:56.116Z,95378.09
2022-07-29T04:47:54.558Z,95384.22
2022-07-29T04:49:52.877Z,95385.81
2022-07-29T04:51:51.290Z,95387.22
2022-07-29T04:53:49.556Z,95386.69
2022-07-29T04:55:47.980Z,95386.34
2022-07-29T04:57:46.248Z,95390.28
2022-07-29T04:59:45.933Z,95392.31
2022-07-29T05:01:44.418Z,95393.53
2022-07-29T05:03:42.825Z,95392.47
2022-07-29T05:05:41.883Z,95383.56
2022-07-29T05:07:40.181Z,95390.38
2022-07-29T05:09:38.346Z,95382.66
2022-07-29T05:11:36.658Z,95392.81
2022-07-29T05:13:45.366Z,95389.34
2022-07-29T05:15:46.146Z,95387.22
2022-07-29T05:17:44.384Z,95391.72
2022-07-29T05:19:42.641Z,95393.00
2022-07-29T05:21:40.853Z,95394.25
2022-07-29T05:23:39.215Z,95394.31
2022-07-29T05:25:43.116Z,95396.63
2022-07-29T05:27:42.827Z,95392.59
2022-07-29T05:29:43.243Z,95392.03
2022-07-29T05:31:44.758Z,95389.41
2022-07-29T05:33:43.217Z,95390.97
2022-07-29T05:35:41.612Z,95396.75
2022-07-29T05:37:40.152Z,95396.72
2022-07-29T05:39:48.826Z,95393.66
2022-07-29T05:41:52.018Z,95399.03
2022-07-29T05:43:50.560Z,95404.81
2022-07-29T05:45:49.664Z,95406.97
2022-07-29T05:47:49.941Z,95408.44
2022-07-29T05:49:48.317Z,95408.22
2022-07-29T05:51:48.514Z,95406.09
2022-07-29T05:53:46.947Z,95405.41
2022-07-29T05:55:45.422Z,95404.34
2022-07-29T05:57:44.458Z,95405.66
2022-07-29T05:59:42.741Z,95408.34
2022-07-29T06:01:41.070Z,95411.63
2022-07-29T06:03:42.254Z,95404.28
2022-07-29T06:05:40.446Z,95400.88
2022-07-29T06:07:38.863Z,95399.72
2022-07-29T06:09:48.433Z,95403.16
2022-07-29T06:11:46.670Z,95408.88
2022-07-29T06:13:44.942Z,95410.94
2022-07-29T06:15:43.435Z,95410.56
2022-07-29T06:18:00.095Z,95409.34
2022-07-29T06:20:00.939Z,95407.00
2022-07-29T06:21:59.330Z,95413.19
2022-07-29T06:23:57.790Z,95415.28
2022-07-29T06:25:56.013Z,95411.16
2022-07-29T06:27:54.543Z,95400.94
2022-07-29T06:29:52.930Z,95404.31
2022-07-29T06:31:51.203Z,95401.47
2022-07-29T06:33:49.441Z,95403.59
2022-07-29T06:35:53.180Z,95396.81
2022-07-29T06:37:52.547Z,95399.47
2022-07-29T06:40:14.231Z,95403.16
2022-07-29T06:42:12.458Z,95402.00
2022-07-29T06:44:10.931Z,95390.41
2022-07-29T06:46:12.193Z,95393.03
2022-07-29T06:48:10.685Z,95391.19
2022-07-29T06:50:12.764Z,95391.06
2022-07-29T06:52:12.519Z,95397.75
2022-07-29T06:54:10.817Z,95394.81
2022-07-29T06:56:10.292Z,95394.97
2022-07-29T06:58:08.801Z,95385.69
2022-07-29T07:00:08.949Z,95395.56
2022-07-29T07:02:07.183Z,95389.78
2022-07-29T07:04:05.754Z,95388.13
2022-07-29T07:06:04.488Z,95381.75
2022-07-29T07:08:04.540Z,95392.13
2022-07-29T07:10:03.062Z,95379.91
2022-07-29T07:12:01.257Z,95380.09
2022-07-29T07:14:03.446Z,95377.41
2022-07-29T07:16:03.083Z,95382.94
2022-07-29T07:18:01.529Z,95377.94
2022-07-29T07:19:59.792Z,95377.41
2022-07-29T07:21:58.080Z,95374.59
2022-07-29T07:23:57.797Z,95374.53
2022-07-29T07:25:56.035Z,95379.00
2022-07-29T07:27:54.275Z,95371.47
2022-07-29T07:29:52.526Z,95378.31
2022-07-29T07:31:51.080Z,95376.09
2022-07-29T07:33:49.421Z,95373.13
2022-07-29T07:35:47.725Z,95372.56
2022-07-29T07:37:45.958Z,95380.94
2022-07-29T07:39:45.734Z,95378.78
2022-07-29T07:41:43.918Z,95367.00
2022-07-29T07:43:42.249Z,95371.91
2022-07-29T07:45:41.190Z,95369.72
2022-07-29T07:47:40.234Z,95377.59
2022-07-29T07:49:38.784Z,95380.97
2022-07-29T07:51:40.028Z,95367.09
2022-07-29T07:53:38.320Z,95380.41
2022-07-29T07:58:00.520Z,95375.53
2022-07-29T07:59:58.783Z,95378.69
2022-07-29T08:01:57.131Z,95372.94
2022-07-29T08:03:55.591Z,95358.16
2022-07-29T08:05:55.247Z,95369.22
2022-07-29T08:07:53.657Z,95366.81
2022-07-29T08:09:51.904Z,95366.03
2022-07-29T08:11:52.356Z,95367.75
2022-07-29T08:13:50.752Z,95365.19
2022-07-29T08:15:49.121Z,95364.13
2022-07-29T08:17:47.324Z,95361.31
2022-07-29T08:19:45.497Z,95367.13
2022-07-29T08:21:43.967Z,95359.47
2022-07-29T08:23:50.522Z,95366.44
2022-07-29T08:25:51.685Z,95364.16
2022-07-29T08:27:51.415Z,95360.88
2022-07-29T08:29:49.989Z,95368.78
2022-07-29T08:31:48.439Z,95357.09
2022-07-29T08:33:46.974Z,95354.81
2022-07-29T08:35:45.123Z,95354.53
2022-07-29T08:37:43.429Z,95363.53
2022-07-29T08:39:42.223Z,95366.56
2022-07-29T08:41:40.595Z,95356.81
2022-07-29T08:43:56.353Z,95354.34
2022-07-29T08:45:54.673Z,95351.59
2022-07-29T08:47:53.110Z,95357.63
2022-07-29T08:49:51.435Z,95356.19
2022-07-29T08:51:49.942Z,95349.59
2022-07-29T08:53:50.322Z,95354.69
2022-07-29T08:55:51.879Z,95339.66
2022-07-29T08:57:50.919Z,95345.34
2022-07-29T08:59:55.987Z,95338.91
2022-07-29T09:01:55.984Z,95341.72
2022-07-29T09:03:58.022Z,95344.13
2022-07-29T09:05:56.804Z,95340.88
2022-07-29T09:07:55.644Z,95331.41
2022-07-29T09:09:54.114Z,95330.22
2022-07-29T09:11:55.219Z,95324.34
2022-07-29T09:13:53.638Z,95330.91
2022-07-29T09:15:54.113Z,95328.56
2022-07-29T09:17:52.777Z,95328.38
2022-07-29T09:19:53.470Z,95332.31
2022-07-29T09:22:00.153Z,95321.25
2022-07-29T09:24:03.272Z,95327.38
2022-07-29T09:26:07.855Z,95326.25
2022-07-29T09:28:10.032Z,95323.97
2022-07-29T09:30:12.172Z,95327.28
2022-07-29T09:32:12.642Z,95337.88
2022-07-29T09:34:11.878Z,95321.47
2022-07-29T09:36:12.538Z,95331.09
2022-07-29T09:38:14.050Z,95334.34
2022-07-29T09:40:17.304Z,95331.50
2022-07-29T09:42:16.697Z,95322.41
2022-07-29T09:44:15.922Z,95322.44
2022-07-29T09:46:15.203Z,95316.41
2022-07-29T09:48:19.088Z,95321.66
2022-07-29T09:50:20.681Z,95321.38
2022-07-29T09:52:19.064Z,95316.97
2022-07-29T09:54:26.868Z,95316.44
2022-07-29T09:56:42.376Z,95310.13
2022-07-29T09:58:40.829Z,95300.94
2022-07-29T10:00:44.608Z,95302.81
2022-07-29T10:02:45.610Z,95300.63
2022-07-29T10:04:45.369Z,95304.59
2022-07-29T10:07:04.426Z,95303.59
2022-07-29T10:09:10.524Z,95296.97
2022-07-29T10:11:13.924Z,95292.69
2022-07-29T10:13:16.058Z,95286.16
2022-07-29T10:15:15.020Z,95284.75
2022-07-29T10:17:13.580Z,95273.25
2022-07-29T10:19:12.327Z,95274.50
2022-07-29T10:21:22.547Z,95276.00
2022-07-29T10:23:46.944Z,95280.69
2022-07-29T10:25:47.870Z,95273.41
2022-07-29T10:27:47.587Z,95271.22
2022-07-29T10:29:46.228Z,95273.16
2022-07-29T10:31:53.189Z,95272.97
2022-07-29T10:34:04.054Z,95266.47
2022-07-29T10:36:21.977Z,95264.28
2022-07-29T10:38:36.860Z,95259.88
2022-07-29T10:41:06.787Z,95256.38
2022-07-29T10:43:24.049Z,95258.47
2022-07-29T10:45:25.041Z,95252.31
2022-07-29T10:47:27.485Z,95257.00
2022-07-29T10:52:05.887Z,95248.28
2022-07-29T10:54:06.788Z,95235.41
2022-07-29T10:56:06.384Z,95244.84
2022-07-29T10:58:15.855Z,95248.31
2022-07-29T11:00:34.059Z,95231.47
2022-07-29T11:02:53.026Z,95248.84
2022-07-29T11:05:04.493Z,95231.88
2022-07-29T11:07:10.406Z,95240.66
2022-07-29T11:09:20.359Z,95229.97
2022-07-29T11:11:35.011Z,95231.41
2022-07-29T11:13:53.257Z,95226.09
2022-07-29T11:15:55.706Z,95225.78
2022-07-29T11:18:07.829Z,95227.91
2022-07-29T11:20:37.833Z,95219.91
2022-07-29T11:22:45.860Z,95225.63
2022-07-29T11:24:49.307Z,95219.97
2022-07-29T11:27:08.946Z,95213.25
2022-07-29T11:29:19.098Z,95218.75
2022-07-29T11:31:19.112Z,95211.94
2022-07-29T11:33:54.526Z,95205.19
2022-07-29T11:36:16.921Z,95208.94
2022-07-29T11:38:31.626Z,95218.41
2022-07-29T11:40:30.565Z,95211.75
2022-07-29T11:42:45.075Z,95211.88
2022-07-29T11:44:57.896Z,95210.03
2022-07-29T11:46:56.901Z,95203.56
2022-07-29T11:48:56.946Z,95200.78
2022-07-29T11:50:58.292Z,95202.47
2022-07-29T11:52:57.480Z,95202.84
2022-07-29T11:55:00.847Z,95195.72
2022-07-29T11:57:09.625Z,95195.75
2022-07-29T11:59:11.127Z,95189.78
2022-07-29T12:01:16.201Z,95202.22
2022-07-29T12:05:48.196Z,95194.81
2022-07-29T12:07:03.883Z,95196.56
2022-07-29T12:07:47.240Z,95197.25
2022-07-29T12:09:52.942Z,95187.75
2022-07-29T12:12:04.898Z,95194.69
2022-07-29T12:14:04.023Z,95189.09
2022-07-29T12:16:02.577Z,95186.13
2022-07-29T12:18:03.909Z,95187.63
2022-07-29T12:20:05.104Z,95189.69
2022-07-29T12:22:04.248Z,95185.97
2022-07-29T12:24:08.802Z,95198.03
2022-07-29T12:26:10.571Z,95185.78
2022-07-29T12:28:14.114Z,95183.47
2022-07-29T12:30:17.409Z,95187.50
2022-07-29T12:32:19.824Z,95175.81
2022-07-29T12:34:20.977Z,95168.06
2022-07-29T12:36:19.289Z,95172.38
2022-07-29T12:38:18.490Z,95177.00
2022-07-29T12:40:18.548Z,95167.28
2022-07-29T12:42:19.190Z,95180.03
2022-07-29T12:44:18.961Z,95169.19
2022-07-29T12:46:17.494Z,95170.56
2022-07-29T12:48:16.825Z,95171.31
2022-07-29T12:50:22.119Z,95165.16
2022-07-29T12:52:29.996Z,95171.94
2022-07-29T12:54:28.285Z,95157.69
2022-07-29T12:56:42.307Z,95155.25
2022-07-29T12:58:44.470Z,95150.91
2022-07-29T13:00:45.057Z,95145.75
2022-07-29T13:02:46.420Z,95142.75
2022-07-29T13:04:44.863Z,95152.81
2022-07-29T13:06:45.925Z,95143.03
2022-07-29T13:09:01.600Z,95142.53
2022-07-29T13:10:59.918Z,95144.00
2022-07-29T13:13:07.597Z,95142.44
2022-07-29T13:15:15.506Z,95141.38
2022-07-29T13:17:17.725Z,95132.41
2022-07-29T13:19:16.177Z,95140.00
2022-07-29T13:21:17.723Z,95140.00
2022-07-29T13:23:17.971Z,95131.28
2022-07-29T13:25:17.075Z,95122.78
2022-07-29T13:27:16.189Z,95133.75
2022-07-29T13:29:14.564Z,95125.41
2022-07-29T13:31:13.276Z,95120.50
2022-07-29T13:33:13.123Z,95119.53
2022-07-29T13:35:12.730Z,95116.28
2022-07-29T13:37:11.118Z,95122.91
2022-07-29T13:39:14.543Z,95109.13
2022-07-29T13:41:15.093Z,95112.75
2022-07-29T13:43:13.787Z,95115.56
2022-07-29T13:45:13.166Z,95115.19
2022-07-29T13:47:11.569Z,95111.84
2022-07-29T13:49:12.412Z,95113.66
2022-07-29T13:51:10.833Z,95111.53
2022-07-29T13:53:09.139Z,95116.66
2022-07-29T13:55:09.385Z,95110.16
2022-07-29T13:57:07.895Z,95113.38
2022-07-29T13:59:06.032Z,95112.25
2022-07-29T14:01:04.644Z,95112.34
2022-07-29T14:03:03.131Z,95102.41
2022-07-29T14:05:07.997Z,95111.09
2022-07-29T14:07:06.920Z,95116.59
2022-07-29T14:09:07.208Z,95120.69
2022-07-29T14:11:05.749Z,95117.69
2022-07-29T14:13:04.134Z,95115.56
2022-07-29T14:15:02.603Z,95125.63
2022-07-29T14:17:00.993Z,95118.44
2022-07-29T14:18:59.379Z,95118.41
2022-07-29T14:20:59.219Z,95113.97
2022-07-29T14:22:58.092Z,95114.78
2022-07-29T14:24:56.384Z,95114.78
2022-07-29T14:26:54.734Z,95105.66
2022-07-29T14:28:53.218Z,95111.09
2022-07-29T14:30:51.423Z,95104.50
2022-07-29T14:32:49.640Z,95113.75
2022-07-29T14:34:48.012Z,95113.81
2022-07-29T14:36:47.766Z,95107.22
2022-07-29T14:38:46.046Z,95106.34
2022-07-29T14:40:47.679Z,95114.25
2022-07-29T14:42:49.218Z,95112.28
2022-07-29T14:44:48.864Z,95107.47
2022-07-29T14:46:48.585Z,95108.72
2022-07-29T14:48:48.005Z,95108.22
2022-07-29T14:50:46.334Z,95112.44
2022-07-29T14:52:46.114Z,95113.59
2022-07-29T14:54:44.513Z,95125.94
2022-07-29T14:56:46.956Z,95110.16
2022-07-29T14:58:49.179Z,95107.44
2022-07-29T15:00:50.228Z,95107.44
2022-07-29T15:03:03.988Z,95108.75
2022-07-29T15:05:02.197Z,95101.81
2022-07-29T15:07:00.517Z,95101.53
2022-07-29T15:09:00.372Z,95104.50
2022-07-29T15:11:00.414Z,95106.97
2022-07-29T15:12:59.199Z,95100.44
2022-07-29T15:14:57.565Z,95105.81
2022-07-29T15:16:55.994Z,95106.84
2022-07-29T15:18:55.555Z,95104.94
2022-07-29T15:20:53.967Z,95098.41
2022-07-29T15:22:52.427Z,95100.38
2022-07-29T15:24:52.224Z,95098.16
2022-07-29T15:26:53.042Z,95098.19
2022-07-29T15:28:53.270Z,95087.56
2022-07-29T15:30:51.646Z,95092.75
2022-07-29T15:32:49.886Z,95089.50
2022-07-29T15:34:54.491Z,95091.16
2022-07-29T15:36:53.724Z,95095.19
2022-07-29T15:38:54.596Z,95091.91
2022-07-29T15:40:54.415Z,95084.09
2022-07-29T15:42:52.774Z,95099.06
2022-07-29T15:44:51.230Z,95088.72
2022-07-29T15:47:04.363Z,95101.19
2022-07-29T15:49:03.627Z,95101.41
2022-07-29T15:51:01.959Z,95091.06
2022-07-29T15:53:00.589Z,95099.78
2022-07-29T15:54:59.159Z,95096.19
2022-07-29T15:56:59.305Z,95092.03
2022-07-29T15:58:58.739Z,95094.69
2022-07-29T16:00:57.181Z,95094.66
2022-07-29T16:02:55.434Z,95094.59
2022-07-29T16:04:53.785Z,95095.97
2022-07-29T16:06:52.275Z,95088.56
2022-07-29T16:08:50.717Z,95086.91
2022-07-29T16:10:49.029Z,95085.78
2022-07-29T16:12:48.737Z,95095.50
2022-07-29T16:14:49.593Z,95095.72
2022-07-29T16:16:48.352Z,95098.44
2022-07-29T16:18:46.645Z,95099.50
2022-07-29T16:20:45.107Z,95102.66
2022-07-29T16:22:43.592Z,95097.16
2022-07-29T16:24:42.216Z,95100.34
2022-07-29T16:26:40.435Z,95102.47
2022-07-29T16:28:40.085Z,95113.00
2022-07-29T16:30:38.580Z,95109.19
2022-07-29T16:32:37.105Z,95108.63
2022-07-29T16:34:35.694Z,95112.66
2022-07-29T16:36:34.043Z,95113.47
2022-07-29T16:38:32.243Z,95113.31
2022-07-29T16:40:30.572Z,95108.13
2022-07-29T16:42:45.346Z,95112.44
2022-07-29T16:44:45.555Z,95120.00
2022-07-29T16:46:45.602Z,95113.44
2022-07-29T16:48:44.001Z,95115.50
2022-07-29T16:50:43.788Z,95121.47
2022-07-29T16:52:42.174Z,95117.38
2022-07-29T16:54:41.143Z,95119.22
2022-07-29T16:56:39.471Z,95110.81
2022-07-29T16:58:40.468Z,95115.19
2022-07-29T17:00:43.243Z,95114.13
2022-07-29T17:02:41.719Z,95127.34
2022-07-29T17:04:39.992Z,95118.09
2022-07-29T17:06:40.473Z,95113.72
2022-07-29T17:08:38.755Z,95120.81
2022-07-29T17:10:38.090Z,95118.63
2022-07-29T17:12:37.816Z,95114.81
2022-07-29T17:14:36.368Z,95109.97
2022-07-29T17:16:36.317Z,95113.09
2022-07-29T17:18:34.673Z,95104.66
2022-07-29T17:20:36.573Z,95115.16
2022-07-29T17:22:35.217Z,95110.28
2022-07-29T17:24:33.725Z,95123.25
2022-07-29T17:26:31.957Z,95124.53
2022-07-29T17:28:30.357Z,95123.41
2022-07-29T17:30:28.602Z,95127.16
2022-07-29T17:32:28.319Z,95134.63
2022-07-29T17:34:26.589Z,95126.16
2022-07-29T17:36:23.877Z,95130.66
2022-07-29T17:38:22.289Z,95128.94
2022-07-29T17:40:20.502Z,95132.13
2022-07-29T17:42:18.843Z,95130.16
2022-07-29T17:44:17.122Z,95132.22
2022-07-29T17:46:15.697Z,95133.78
2022-07-29T17:48:15.456Z,95134.78
2022-07-29T17:50:13.813Z,95136.09
2022-07-29T17:52:12.263Z,95134.94
2022-07-29T17:54:10.511Z,95124.84
2022-07-29T17:56:09.336Z,95128.78
2022-07-29T17:58:09.215Z,95127.66
2022-07-29T18:00:08.945Z,95133.44
2022-07-29T18:02:07.395Z,95142.50
2022-07-29T18:04:07.171Z,95138.88
2022-07-29T18:06:05.843Z,95143.72
2022-07-29T18:08:04.197Z,95137.25
2022-07-29T18:10:02.658Z,95142.25
2022-07-29T18:12:01.238Z,95140.16
2022-07-29T18:14:02.373Z,95151.38
2022-07-29T18:16:01.103Z,95149.06
2022-07-29T18:17:59.562Z,95152.00
2022-07-29T18:19:59.322Z,95155.28
2022-07-29T18:22:03.190Z,95150.38
2022-07-29T18:24:03.540Z,95160.09
2022-07-29T18:26:01.759Z,95162.09
2022-07-29T18:28:00.877Z,95159.06
2022-07-29T18:29:59.452Z,95164.47
2022-07-29T18:32:03.301Z,95174.00
2022-07-29T18:34:01.612Z,95162.13
2022-07-29T18:36:10.699Z,95174.50
2022-07-29T18:38:10.205Z,95174.50
2022-07-29T18:40:10.722Z,95167.59
2022-07-29T18:42:09.320Z,95166.03
2022-07-29T18:44:09.618Z,95174.16
2022-07-29T18:46:08.334Z,95173.59
2022-07-29T18:48:13.004Z,95176.19
2022-07-29T18:50:12.766Z,95183.25
2022-07-29T18:52:12.593Z,95188.41
2022-07-29T18:54:11.190Z,95185.25
2022-07-29T18:56:09.618Z,95180.06
2022-07-29T18:58:07.907Z,95186.53
2022-07-29T19:00:10.004Z,95184.53
2022-07-29T19:02:11.457Z,95187.91
2022-07-29T19:04:10.199Z,95188.16
2022-07-29T19:06:08.604Z,95185.91
2022-07-29T19:08:09.217Z,95190.13
2022-07-29T19:10:08.388Z,95189.69
2022-07-29T19:12:07.497Z,95191.88
2022-07-29T19:14:07.054Z,95189.66
2022-07-29T19:16:05.815Z,95204.09
2022-07-29T19:18:04.648Z,95195.41
2022-07-29T19:20:03.609Z,95201.97
2022-07-29T19:22:03.271Z,95204.19
2022-07-29T19:24:07.855Z,95213.56
2022-07-29T19:26:08.573Z,95219.78
2022-07-29T19:28:06.940Z,95214.19
2022-07-29T19:30:07.775Z,95216.41
2022-07-29T19:32:06.512Z,95217.59
2022-07-29T19:34:04.911Z,95215.91
2022-07-29T19:36:04.017Z,95215.19
2022-07-29T19:38:03.430Z,95218.34
2022-07-29T19:40:03.058Z,95218.69
2022-07-29T19:42:03.526Z,95219.50
2022-07-29T19:44:02.007Z,95223.72
2022-07-29T19:46:00.301Z,95218.22
2022-07-29T19:48:01.512Z,95222.63
2022-07-29T19:50:00.781Z,95215.13
2022-07-29T19:51:58.931Z,95218.78
2022-07-29T19:53:57.346Z,95215.53
2022-07-29T19:55:57.024Z,95217.16
2022-07-29T19:57:55.495Z,95219.84
2022-07-29T19:59:53.862Z,95214.75
2022-07-29T20:01:52.490Z,95212.06
2022-07-29T20:03:50.740Z,95216.72
2022-07-29T20:05:51.110Z,95223.31
2022-07-29T20:07:49.523Z,95224.38
2022-07-29T20:09:47.807Z,95217.09
2022-07-29T20:11:47.517Z,95218.13
2022-07-29T20:13:45.915Z,95211.34
2022-07-29T20:15:44.191Z,95214.34
2022-07-29T20:17:42.585Z,95208.63
2022-07-29T20:19:42.764Z,95211.97
2022-07-29T20:21:41.092Z,95213.03
2022-07-29T20:23:39.494Z,95220.38
2022-07-29T20:25:38.352Z,95217.31
2022-07-29T20:27:40.406Z,95210.75
2022-07-29T20:29:39.463Z,95214.13
2022-07-29T20:31:39.044Z,95224.44
2022-07-29T20:33:37.350Z,95219.03
2022-07-29T20:35:35.606Z,95223.41
2022-07-29T20:37:33.929Z,95219.28
2022-07-29T20:39:50.956Z,95227.00
2022-07-29T20:41:49.556Z,95222.66
2022-07-29T20:43:49.841Z,95224.00
2022-07-29T20:45:48.746Z,95229.69
2022-07-29T20:47:47.150Z,95234.00
2022-07-29T20:49:45.440Z,95230.91
2022-07-29T20:51:44.227Z,95228.03
2022-07-29T20:53:42.894Z,95235.06
2022-07-29T20:55:41.494Z,95237.97
2022-07-29T20:57:40.132Z,95248.31
2022-07-29T20:59:44.067Z,95234.78
2022-07-29T21:01:44.101Z,95230.66
2022-07-29T21:03:42.479Z,95239.19
2022-07-29T21:05:43.959Z,95234.41
2022-07-29T21:07:42.632Z,95238.81
2022-07-29T21:09:40.918Z,95240.38
2022-07-29T21:11:43.559Z,95229.16
2022-07-29T21:13:45.661Z,95235.22
2022-07-29T21:15:48.457Z,95230.88
2022-07-29T21:17:48.044Z,95235.44
2022-07-29T21:19:47.208Z,95228.88
2022-07-29T21:21:45.569Z,95242.53
2022-07-29T21:23:44.730Z,95236.38
2022-07-29T21:25:42.957Z,95238.50
2022-07-29T21:27:58.362Z,95228.75
2022-07-29T21:29:56.808Z,95241.78
2022-07-29T21:31:59.325Z,95237.75
2022-07-29T21:33:57.659Z,95239.81
2022-07-29T21:36:20.326Z,95230.09
2022-07-29T21:38:16.373Z,95232.63
2022-07-29T21:40:14.779Z,95240.75
2022-07-29T21:42:13.151Z,95244.13
2022-07-29T21:44:11.541Z,95243.13
2022-07-29T21:46:10.288Z,95247.38
2022-07-29T21:48:10.022Z,95241.44
2022-07-29T21:50:09.146Z,95240.03
2022-07-29T21:52:08.226Z,95229.28
2022-07-29T21:54:07.422Z,95240.66
2022-07-29T21:56:07.593Z,95232.00
2022-07-29T21:58:12.404Z,95236.34
2022-07-29T22:00:15.725Z,95230.59
2022-07-29T22:02:14.096Z,95234.72
2022-07-29T22:04:14.201Z,95231.41
2022-07-29T22:06:17.932Z,95232.50
2022-07-29T22:08:16.730Z,95236.00
2022-07-29T22:10:15.031Z,95237.69
2022-07-29T22:12:13.384Z,95235.03
2022-07-29T22:14:12.461Z,95235.66
2022-07-29T22:16:14.788Z,95237.78
2022-07-29T22:18:13.156Z,95236.94
2022-07-29T22:20:20.988Z,95245.03
2022-07-29T22:22:19.412Z,95248.13
2022-07-29T22:24:17.645Z,95243.19
2022-07-29T22:26:15.960Z,95242.56
2022-07-29T22:28:14.173Z,95250.81
2022-07-29T22:30:13.326Z,95252.91
2022-07-29T22:32:11.783Z,95249.38
2022-07-29T22:34:13.315Z,95246.94
2022-07-29T22:36:13.008Z,95249.22
2022-07-29T22:38:11.312Z,95250.47
2022-07-29T22:40:10.151Z,95252.94
2022-07-29T22:42:08.665Z,95240.94
2022-07-29T22:44:07.050Z,95249.00
2022-07-29T22:46:05.451Z,95252.75
2022-07-29T22:48:03.760Z,95246.97
2022-07-29T22:50:02.093Z,95243.19
2022-07-29T22:52:01.874Z,95246.53
2022-07-29T22:54:00.433Z,95247.94
2022-07-29T22:55:58.777Z,95244.50
2022-07-29T22:57:56.999Z,95247.78
2022-07-29T22:59:56.384Z,95245.53
2022-07-29T23:01:55.220Z,95248.22
2022-07-29T23:03:53.867Z,95246.56
2022-07-29T23:05:52.510Z,95241.44
2022-07-29T23:07:52.141Z,95241.97
2022-07-29T23:09:50.719Z,95243.63
2022-07-29T23:11:49.101Z,95241.19
2022-07-29T23:13:47.358Z,95253.44
2022-07-29T23:15:45.735Z,95242.44
2022-07-29T23:17:44.209Z,95250.31
2022-07-29T23:19:42.684Z,95246.16
2022-07-29T23:21:41.079Z,95244.50
2022-07-29T23:23:40.728Z,95250.56
2022-07-29T23:25:39.074Z,95250.97
2022-07-29T23:27:37.501Z,95247.44
2022-07-29T23:29:36.929Z,95248.09
2022-07-29T23:31:36.113Z,95243.34
2022-07-29T23:33:40.412Z,95256.38
2022-07-29T23:35:39.273Z,95253.91
2022-07-29T23:37:37.640Z,95249.81
2022-07-29T23:39:37.458Z,95252.50
2022-07-29T23:41:35.784Z,95250.81
2022-07-29T23:43:34.037Z,95252.25
2022-07-29T23:45:44.693Z,95256.59
2022-07-29T23:47:43.496Z,95248.09